Terminal Aerodrome Forecast
Issued by NWS

Home | Current Version | Previous Version | Graphics & Text | Print | Product List | Glossary On
Versions: 1 2 3 4 5 6 7 8 9 10 11 12 13 14 15 16 17 18 19 20 21 22 23
000
FTUS42 KMHX 030716 AAA
TAFISO
TAF AMD
KISO 030716Z 0307/0406 00000KT P6SM SCT015 BKN025
     FM030900 21005KT 4SM BR SCT250
     FM031200 21005KT P6SM BKN200
     FM031800 21010KT P6SM SCT050
     FM040000 21005KT P6SM SCT250
      AMD LTD TO CLD VIS AND WIND=

USA.gov is the U.S. government's official web portal to all federal, state and local government web resources and services.